sensor_id;sensor_type;location;lat;lon;timestamp;temperature;humidity
13310;DHT22;6723;48.256;16.402;2022-11-20T00:01:14;2.10;99.90
13310;DHT22;6723;48.256;16.402;2022-11-20T00:03:40;2.10;99.90
13310;DHT22;6723;48.256;16.402;2022-11-20T00:06:09;2.10;99.90
13310;DHT22;6723;48.256;16.402;2022-11-20T00:08:36;2.10;99.90
13310;DHT22;6723;48.256;16.402;2022-11-20T00:11:12;2.10;99.90
13310;DHT22;6723;48.256;16.402;2022-11-20T00:13:38;2.10;99.90
13310;DHT22;6723;48.256;16.402;2022-11-20T00:16:06;2.10;99.90
13310;DHT22;6723;48.256;16.402;2022-11-20T00:18:33;2.10;99.90
13310;DHT22;6723;48.256;16.402;2022-11-20T00:21:03;2.10;99.90
13310;DHT22;6723;48.256;16.402;2022-11-20T00:23:30;2.10;99.90
13310;DHT22;6723;48.256;16.402;2022-11-20T00:25:56;2.00;99.90
13310;DHT22;6723;48.256;16.402;2022-11-20T00:28:22;2.00;99.90
13310;DHT22;6723;48.256;16.402;2022-11-20T00:30:47;2.00;99.90
13310;DHT22;6723;48.256;16.402;2022-11-20T00:33:13;2.00;99.90
13310;DHT22;6723;48.256;16.402;2022-11-20T00:35:39;2.00;99.90
13310;DHT22;6723;48.256;16.402;2022-11-20T00:38:05;2.00;99.90
13310;DHT22;6723;48.256;16.402;2022-11-20T00:40:30;2.10;99.90
13310;DHT22;6723;48.256;16.402;2022-11-20T00:42:56;2.10;99.90
13310;DHT22;6723;48.256;16.402;2022-11-20T00:45:22;2.00;99.90
13310;DHT22;6723;48.256;16.402;2022-11-20T00:47:47;2.10;99.90
13310;DHT22;6723;48.256;16.402;2022-11-20T00:50:13;2.00;99.90
13310;DHT22;6723;48.256;16.402;2022-11-20T00:52:39;2.00;99.90
13310;DHT22;6723;48.256;16.402;2022-11-20T00:55:05;2.00;99.90
13310;DHT22;6723;48.256;16.402;2022-11-20T00:57:31;2.10;99.90
13310;DHT22;6723;48.256;16.402;2022-11-20T00:59:57;2.10;99.90
13310;DHT22;6723;48.256;16.402;2022-11-20T01:02:23;2.10;99.90
13310;DHT22;6723;48.256;16.402;2022-11-20T01:04:48;2.00;99.90
13310;DHT22;6723;48.256;16.402;2022-11-20T01:07:15;2.00;99.90
13310;DHT22;6723;48.256;16.402;2022-11-20T01:09:40;2.00;99.90
13310;DHT22;6723;48.256;16.402;2022-11-20T01:12:06;2.00;99.90
13310;DHT22;6723;48.256;16.402;2022-11-20T01:14:32;1.90;99.90
13310;DHT22;6723;48.256;16.402;2022-11-20T01:16:58;1.90;99.90
13310;DHT22;6723;48.256;16.402;2022-11-20T01:19:23;1.80;99.90
13310;DHT22;6723;48.256;16.402;2022-11-20T01:21:51;1.80;99.90
13310;DHT22;6723;48.256;16.402;2022-11-20T01:24:19;1.80;99.90
13310;DHT22;6723;48.256;16.402;2022-11-20T01:26:48;1.80;99.90
13310;DHT22;6723;48.256;16.402;2022-11-20T01:29:17;1.80;99.90
13310;DHT22;6723;48.256;16.402;2022-11-20T01:31:43;1.90;99.90
13310;DHT22;6723;48.256;16.402;2022-11-20T01:34:12;1.90;99.90
13310;DHT22;6723;48.256;16.402;2022-11-20T01:36:40;1.80;99.90
13310;DHT22;6723;48.256;16.402;2022-11-20T01:39:11;1.90;99.90
13310;DHT22;6723;48.256;16.402;2022-11-20T01:41:38;1.80;99.90
13310;DHT22;6723;48.256;16.402;2022-11-20T01:47:38;1.90;99.90
13310;DHT22;6723;48.256;16.402;2022-11-20T01:50:15;2.00;99.90
13310;DHT22;6723;48.256;16.402;2022-11-20T01:53:06;1.90;99.90
13310;DHT22;6723;48.256;16.402;2022-11-20T01:55:40;1.90;99.90
13310;DHT22;6723;48.256;16.402;2022-11-20T01:58:07;1.90;99.90
13310;DHT22;6723;48.256;16.402;2022-11-20T02:00:34;1.90;99.90
13310;DHT22;6723;48.256;16.402;2022-11-20T02:03:03;1.90;99.90
13310;DHT22;6723;48.256;16.402;2022-11-20T02:05:42;1.90;99.90
13310;DHT22;6723;48.256;16.402;2022-11-20T02:08:09;1.90;99.90
13310;DHT22;6723;48.256;16.402;2022-11-20T02:10:35;2.00;99.90
13310;DHT22;6723;48.256;16.402;2022-11-20T02:13:01;2.00;99.90
13310;DHT22;6723;48.256;16.402;2022-11-20T02:15:46;2.00;99.90
13310;DHT22;6723;48.256;16.402;2022-11-20T02:18:16;2.20;99.90
13310;DHT22;6723;48.256;16.402;2022-11-20T02:20:44;2.20;99.90
13310;DHT22;6723;48.256;16.402;2022-11-20T02:23:20;2.10;99.90
13310;DHT22;6723;48.256;16.402;2022-11-20T02:25:49;2.00;99.90
13310;DHT22;6723;48.256;16.402;2022-11-20T02:28:17;2.10;99.90
13310;DHT22;6723;48.256;16.402;2022-11-20T02:30:43;2.10;99.90
13310;DHT22;6723;48.256;16.402;2022-11-20T02:33:09;2.00;99.90
13310;DHT22;6723;48.256;16.402;2022-11-20T02:38:02;2.00;99.90
13310;DHT22;6723;48.256;16.402;2022-11-20T02:40:28;2.10;99.90
13310;DHT22;6723;48.256;16.402;2022-11-20T02:42:55;2.10;99.90
13310;DHT22;6723;48.256;16.402;2022-11-20T02:45:22;2.00;99.90
13310;DHT22;6723;48.256;16.402;2022-11-20T02:47:49;2.10;99.90
13310;DHT22;6723;48.256;16.402;2022-11-20T02:50:15;2.10;99.90
13310;DHT22;6723;48.256;16.402;2022-11-20T02:52:41;2.00;99.90
13310;DHT22;6723;48.256;16.402;2022-11-20T02:55:08;2.10;99.90
13310;DHT22;6723;48.256;16.402;2022-11-20T02:57:34;2.00;99.90
13310;DHT22;6723;48.256;16.402;2022-11-20T03:00:00;2.10;99.90
13310;DHT22;6723;48.256;16.402;2022-11-20T03:02:30;2.00;99.90
13310;DHT22;6723;48.256;16.402;2022-11-20T03:04:56;2.10;99.90
13310;DHT22;6723;48.256;16.402;2022-11-20T03:07:22;2.00;99.90
13310;DHT22;6723;48.256;16.402;2022-11-20T03:09:47;2.10;99.90
13310;DHT22;6723;48.256;16.402;2022-11-20T03:12:13;2.10;99.90
13310;DHT22;6723;48.256;16.402;2022-11-20T03:14:39;2.10;99.90
13310;DHT22;6723;48.256;16.402;2022-11-20T03:17:05;2.10;99.90
13310;DHT22;6723;48.256;16.402;2022-11-20T03:19:31;2.20;99.90
13310;DHT22;6723;48.256;16.402;2022-11-20T03:21:57;2.10;99.90
13310;DHT22;6723;48.256;16.402;2022-11-20T03:24:22;2.10;99.90
13310;DHT22;6723;48.256;16.402;2022-11-20T03:26:48;2.20;99.90
13310;DHT22;6723;48.256;16.402;2022-11-20T03:29:14;2.20;99.90
13310;DHT22;6723;48.256;16.402;2022-11-20T03:31:41;2.20;99.90
13310;DHT22;6723;48.256;16.402;2022-11-20T03:34:08;2.20;99.90
13310;DHT22;6723;48.256;16.402;2022-11-20T03:36:36;2.10;99.90
13310;DHT22;6723;48.256;16.402;2022-11-20T03:39:02;2.10;99.90
13310;DHT22;6723;48.256;16.402;2022-11-20T03:41:36;2.10;99.90
13310;DHT22;6723;48.256;16.402;2022-11-20T03:44:04;2.10;99.90
13310;DHT22;6723;48.256;16.402;2022-11-20T03:46:31;2.10;99.90
13310;DHT22;6723;48.256;16.402;2022-11-20T03:48:57;2.10;99.90
13310;DHT22;6723;48.256;16.402;2022-11-20T03:51:28;2.10;99.90
13310;DHT22;6723;48.256;16.402;2022-11-20T03:53:58;2.10;99.90
13310;DHT22;6723;48.256;16.402;2022-11-20T03:56:26;2.10;99.90
13310;DHT22;6723;48.256;16.402;2022-11-20T03:58:52;2.10;99.90
13310;DHT22;6723;48.256;16.402;2022-11-20T04:01:21;2.10;99.90
13310;DHT22;6723;48.256;16.402;2022-11-20T04:03:47;2.10;99.90
13310;DHT22;6723;48.256;16.402;2022-11-20T04:06:15;2.10;99.90
13310;DHT22;6723;48.256;16.402;2022-11-20T04:08:42;2.10;99.90
13310;DHT22;6723;48.256;16.402;2022-11-20T04:11:16;2.10;99.90
13310;DHT22;6723;48.256;16.402;2022-11-20T04:13:45;2.10;99.90
13310;DHT22;6723;48.256;16.402;2022-11-20T04:16:12;2.10;99.90
13310;DHT22;6723;48.256;16.402;2022-11-20T04:18:38;2.10;99.90
13310;DHT22;6723;48.256;16.402;2022-11-20T04:21:05;2.10;99.90
13310;DHT22;6723;48.256;16.402;2022-11-20T04:23:31;2.10;99.90
13310;DHT22;6723;48.256;16.402;2022-11-20T04:26:05;2.10;99.90
13310;DHT22;6723;48.256;16.402;2022-11-20T04:28:31;2.10;99.90
13310;DHT22;6723;48.256;16.402;2022-11-20T04:31:05;2.00;99.90
13310;DHT22;6723;48.256;16.402;2022-11-20T04:33:31;2.00;99.90
13310;DHT22;6723;48.256;16.402;2022-11-20T04:36:07;1.90;99.90
13310;DHT22;6723;48.256;16.402;2022-11-20T04:38:35;1.90;99.90
13310;DHT22;6723;48.256;16.402;2022-11-20T04:41:03;1.90;99.90
13310;DHT22;6723;48.256;16.402;2022-11-20T04:43:29;1.90;99.90
13310;DHT22;6723;48.256;16.402;2022-11-20T04:45:56;1.80;99.90
13310;DHT22;6723;48.256;16.402;2022-11-20T04:48:23;1.70;99.90
13310;DHT22;6723;48.256;16.402;2022-11-20T04:50:49;1.80;99.90
13310;DHT22;6723;48.256;16.402;2022-11-20T04:53:15;1.80;99.90
13310;DHT22;6723;48.256;16.402;2022-11-20T04:55:41;1.70;99.90
13310;DHT22;6723;48.256;16.402;2022-11-20T04:58:06;1.70;99.90
13310;DHT22;6723;48.256;16.402;2022-11-20T05:00:32;1.70;99.90
13310;DHT22;6723;48.256;16.402;2022-11-20T05:02:58;1.70;99.90
13310;DHT22;6723;48.256;16.402;2022-11-20T05:05:24;1.70;99.90
13310;DHT22;6723;48.256;16.402;2022-11-20T05:07:50;1.70;99.90
13310;DHT22;6723;48.256;16.402;2022-11-20T05:10:16;1.70;99.90
13310;DHT22;6723;48.256;16.402;2022-11-20T05:12:41;1.70;99.90
13310;DHT22;6723;48.256;16.402;2022-11-20T05:15:07;1.70;99.90
13310;DHT22;6723;48.256;16.402;2022-11-20T05:17:49;1.70;99.90
13310;DHT22;6723;48.256;16.402;2022-11-20T05:20:16;1.70;99.90
13310;DHT22;6723;48.256;16.402;2022-11-20T05:22:42;1.80;99.90
13310;DHT22;6723;48.256;16.402;2022-11-20T05:25:08;1.80;99.90
13310;DHT22;6723;48.256;16.402;2022-11-20T05:27:34;1.80;99.90
13310;DHT22;6723;48.256;16.402;2022-11-20T05:30:00;1.80;99.90
13310;DHT22;6723;48.256;16.402;2022-11-20T05:32:25;1.80;99.90
13310;DHT22;6723;48.256;16.402;2022-11-20T05:34:52;1.80;99.90
13310;DHT22;6723;48.256;16.402;2022-11-20T05:37:17;1.80;99.90
13310;DHT22;6723;48.256;16.402;2022-11-20T05:39:43;1.80;99.90
13310;DHT22;6723;48.256;16.402;2022-11-20T05:42:09;1.80;99.90
13310;DHT22;6723;48.256;16.402;2022-11-20T05:44:53;1.80;99.90
13310;DHT22;6723;48.256;16.402;2022-11-20T05:47:19;1.80;99.90
13310;DHT22;6723;48.256;16.402;2022-11-20T05:49:45;1.90;99.90
13310;DHT22;6723;48.256;16.402;2022-11-20T05:52:10;1.80;99.90
13310;DHT22;6723;48.256;16.402;2022-11-20T05:54:36;1.90;99.90
13310;DHT22;6723;48.256;16.402;2022-11-20T05:57:02;1.90;99.90
13310;DHT22;6723;48.256;16.402;2022-11-20T05:59:27;1.80;99.90
13310;DHT22;6723;48.256;16.402;2022-11-20T06:02:17;1.90;99.90
13310;DHT22;6723;48.256;16.402;2022-11-20T06:04:42;1.80;99.90
13310;DHT22;6723;48.256;16.402;2022-11-20T06:07:08;1.80;99.90
13310;DHT22;6723;48.256;16.402;2022-11-20T06:09:34;1.80;99.90
13310;DHT22;6723;48.256;16.402;2022-11-20T06:12:26;1.80;99.90
13310;DHT22;6723;48.256;16.402;2022-11-20T06:14:52;1.80;99.90
13310;DHT22;6723;48.256;16.402;2022-11-20T06:17:17;1.90;99.90
13310;DHT22;6723;48.256;16.402;2022-11-20T06:19:43;1.90;99.90
13310;DHT22;6723;48.256;16.402;2022-11-20T06:22:09;1.80;99.90
13310;DHT22;6723;48.256;16.402;2022-11-20T06:24:35;1.80;99.90
13310;DHT22;6723;48.256;16.402;2022-11-20T06:27:00;1.70;99.90
13310;DHT22;6723;48.256;16.402;2022-11-20T06:29:26;1.70;99.90
13310;DHT22;6723;48.256;16.402;2022-11-20T06:31:52;1.70;99.90
13310;DHT22;6723;48.256;16.402;2022-11-20T06:34:17;1.70;99.90
13310;DHT22;6723;48.256;16.402;2022-11-20T06:36:43;1.80;99.90
13310;DHT22;6723;48.256;16.402;2022-11-20T06:39:09;1.80;99.90
13310;DHT22;6723;48.256;16.402;2022-11-20T06:41:35;1.80;99.90
13310;DHT22;6723;48.256;16.402;2022-11-20T06:44:00;1.80;99.90
13310;DHT22;6723;48.256;16.402;2022-11-20T06:46:26;1.80;99.90
13310;DHT22;6723;48.256;16.402;2022-11-20T06:48:52;1.80;99.90
13310;DHT22;6723;48.256;16.402;2022-11-20T06:51:18;1.80;99.90
13310;DHT22;6723;48.256;16.402;2022-11-20T06:53:44;1.70;99.90
13310;DHT22;6723;48.256;16.402;2022-11-20T06:56:10;1.70;99.90
13310;DHT22;6723;48.256;16.402;2022-11-20T06:58:36;1.80;99.90
13310;DHT22;6723;48.256;16.402;2022-11-20T07:01:10;1.90;99.90
13310;DHT22;6723;48.256;16.402;2022-11-20T07:03:37;1.90;99.90
13310;DHT22;6723;48.256;16.402;2022-11-20T07:06:04;1.90;99.90
13310;DHT22;6723;48.256;16.402;2022-11-20T07:08:31;1.90;99.90
13310;DHT22;6723;48.256;16.402;2022-11-20T07:10:58;1.90;99.90
13310;DHT22;6723;48.256;16.402;2022-11-20T07:13:25;1.90;99.90
13310;DHT22;6723;48.256;16.402;2022-11-20T07:15:51;1.90;99.90
13310;DHT22;6723;48.256;16.402;2022-11-20T07:18:17;1.90;99.90
13310;DHT22;6723;48.256;16.402;2022-11-20T07:20:42;1.90;99.90
13310;DHT22;6723;48.256;16.402;2022-11-20T07:23:08;1.90;99.90
13310;DHT22;6723;48.256;16.402;2022-11-20T07:25:34;2.00;99.90
13310;DHT22;6723;48.256;16.402;2022-11-20T07:28:00;2.00;99.90
13310;DHT22;6723;48.256;16.402;2022-11-20T07:30:27;1.90;99.90
13310;DHT22;6723;48.256;16.402;2022-11-20T07:32:55;2.00;99.90
13310;DHT22;6723;48.256;16.402;2022-11-20T07:35:21;2.00;99.90
13310;DHT22;6723;48.256;16.402;2022-11-20T07:37:48;2.00;99.90
13310;DHT22;6723;48.256;16.402;2022-11-20T07:40:15;2.00;99.90
13310;DHT22;6723;48.256;16.402;2022-11-20T07:42:48;2.10;99.90
13310;DHT22;6723;48.256;16.402;2022-11-20T07:45:15;2.10;99.90
13310;DHT22;6723;48.256;16.402;2022-11-20T07:47:41;2.10;99.90
13310;DHT22;6723;48.256;16.402;2022-11-20T07:50:07;2.20;99.90
13310;DHT22;6723;48.256;16.402;2022-11-20T07:52:33;2.20;99.90
13310;DHT22;6723;48.256;16.402;2022-11-20T07:55:15;2.20;99.90
13310;DHT22;6723;48.256;16.402;2022-11-20T07:57:41;2.20;99.90
13310;DHT22;6723;48.256;16.402;2022-11-20T08:00:09;2.30;99.90
13310;DHT22;6723;48.256;16.402;2022-11-20T08:02:41;2.40;99.90
13310;DHT22;6723;48.256;16.402;2022-11-20T08:05:08;2.30;99.90
13310;DHT22;6723;48.256;16.402;2022-11-20T08:07:41;2.40;99.90
13310;DHT22;6723;48.256;16.402;2022-11-20T08:10:10;2.40;99.90
13310;DHT22;6723;48.256;16.402;2022-11-20T08:12:36;2.50;99.90
13310;DHT22;6723;48.256;16.402;2022-11-20T08:15:20;2.50;99.90
13310;DHT22;6723;48.256;16.402;2022-11-20T08:17:46;2.50;99.90
13310;DHT22;6723;48.256;16.402;2022-11-20T08:20:12;2.60;99.90
13310;DHT22;6723;48.256;16.402;2022-11-20T08:22:37;2.70;99.90
13310;DHT22;6723;48.256;16.402;2022-11-20T08:25:04;2.70;99.90
13310;DHT22;6723;48.256;16.402;2022-11-20T08:27:31;2.70;99.90
13310;DHT22;6723;48.256;16.402;2022-11-20T08:29:58;2.70;99.90
13310;DHT22;6723;48.256;16.402;2022-11-20T08:32:23;2.70;99.90
13310;DHT22;6723;48.256;16.402;2022-11-20T08:34:49;2.80;99.90
13310;DHT22;6723;48.256;16.402;2022-11-20T08:37:15;2.90;99.90
13310;DHT22;6723;48.256;16.402;2022-11-20T08:39:41;3.00;99.90
13310;DHT22;6723;48.256;16.402;2022-11-20T08:42:07;3.20;99.90
13310;DHT22;6723;48.256;16.402;2022-11-20T08:44:33;3.40;99.90
13310;DHT22;6723;48.256;16.402;2022-11-20T08:47:00;3.40;99.90
13310;DHT22;6723;48.256;16.402;2022-11-20T08:49:26;3.50;99.90
13310;DHT22;6723;48.256;16.402;2022-11-20T08:51:52;3.50;99.90
13310;DHT22;6723;48.256;16.402;2022-11-20T08:54:20;3.60;99.90
13310;DHT22;6723;48.256;16.402;2022-11-20T08:56:48;3.70;99.90
13310;DHT22;6723;48.256;16.402;2022-11-20T08:59:14;3.70;99.90
13310;DHT22;6723;48.256;16.402;2022-11-20T09:01:39;3.50;99.90
13310;DHT22;6723;48.256;16.402;2022-11-20T09:04:05;3.60;99.90
13310;DHT22;6723;48.256;16.402;2022-11-20T09:06:31;3.60;99.90
13310;DHT22;6723;48.256;16.402;2022-11-20T09:08:57;3.60;99.90
13310;DHT22;6723;48.256;16.402;2022-11-20T09:11:23;3.50;99.90
13310;DHT22;6723;48.256;16.402;2022-11-20T09:13:48;3.30;99.90
13310;DHT22;6723;48.256;16.402;2022-11-20T09:16:14;3.40;99.90
13310;DHT22;6723;48.256;16.402;2022-11-20T09:18:40;3.30;99.90
13310;DHT22;6723;48.256;16.402;2022-11-20T09:21:09;3.50;99.90
13310;DHT22;6723;48.256;16.402;2022-11-20T09:23:37;3.20;99.90
13310;DHT22;6723;48.256;16.402;2022-11-20T09:26:11;3.40;99.90
13310;DHT22;6723;48.256;16.402;2022-11-20T09:28:38;3.50;99.90
13310;DHT22;6723;48.256;16.402;2022-11-20T09:31:06;3.50;99.90
13310;DHT22;6723;48.256;16.402;2022-11-20T09:33:32;3.40;99.90
13310;DHT22;6723;48.256;16.402;2022-11-20T09:35:58;3.30;99.90
13310;DHT22;6723;48.256;16.402;2022-11-20T09:38:24;3.10;99.90
13310;DHT22;6723;48.256;16.402;2022-11-20T09:41:15;3.10;99.90
13310;DHT22;6723;48.256;16.402;2022-11-20T09:46:45;2.90;99.90
13310;DHT22;6723;48.256;16.402;2022-11-20T09:49:22;3.00;99.90
13310;DHT22;6723;48.256;16.402;2022-11-20T09:52:22;3.20;99.90
13310;DHT22;6723;48.256;16.402;2022-11-20T09:54:52;3.30;99.90
13310;DHT22;6723;48.256;16.402;2022-11-20T09:57:23;3.40;99.90
13310;DHT22;6723;48.256;16.402;2022-11-20T10:00:01;3.40;99.90
13310;DHT22;6723;48.256;16.402;2022-11-20T10:02:42;3.40;99.90
13310;DHT22;6723;48.256;16.402;2022-11-20T10:05:31;3.40;99.90
13310;DHT22;6723;48.256;16.402;2022-11-20T10:10:42;3.40;99.90
13310;DHT22;6723;48.256;16.402;2022-11-20T10:16:21;3.50;99.90
13310;DHT22;6723;48.256;16.402;2022-11-20T10:25:19;3.50;99.90
13310;DHT22;6723;48.256;16.402;2022-11-20T10:30:14;3.60;99.90
13310;DHT22;6723;48.256;16.402;2022-11-20T10:32:47;3.70;99.90
13310;DHT22;6723;48.256;16.402;2022-11-20T10:37:50;3.80;99.90
13310;DHT22;6723;48.256;16.402;2022-11-20T10:40:37;4.00;99.90
13310;DHT22;6723;48.256;16.402;2022-11-20T10:43:17;3.90;99.90
13310;DHT22;6723;48.256;16.402;2022-11-20T10:45:57;4.00;99.90
13310;DHT22;6723;48.256;16.402;2022-11-20T10:48:25;4.00;99.90
13310;DHT22;6723;48.256;16.402;2022-11-20T10:51:12;4.10;99.90
13310;DHT22;6723;48.256;16.402;2022-11-20T10:56:46;4.40;99.90
13310;DHT22;6723;48.256;16.402;2022-11-20T10:59:29;4.40;99.90
13310;DHT22;6723;48.256;16.402;2022-11-20T11:01:57;4.30;99.90
13310;DHT22;6723;48.256;16.402;2022-11-20T11:04:44;4.40;99.90
13310;DHT22;6723;48.256;16.402;2022-11-20T11:07:17;4.50;99.90
13310;DHT22;6723;48.256;16.402;2022-11-20T11:09:57;4.70;99.90
13310;DHT22;6723;48.256;16.402;2022-11-20T11:12:28;4.80;99.90
13310;DHT22;6723;48.256;16.402;2022-11-20T11:14:56;4.90;99.90
13310;DHT22;6723;48.256;16.402;2022-11-20T11:17:33;5.20;99.90
13310;DHT22;6723;48.256;16.402;2022-11-20T11:20:18;5.20;99.90
13310;DHT22;6723;48.256;16.402;2022-11-20T11:22:47;5.10;99.90
13310;DHT22;6723;48.256;16.402;2022-11-20T11:27:56;5.20;99.90
13310;DHT22;6723;48.256;16.402;2022-11-20T11:30:23;5.30;99.90
13310;DHT22;6723;48.256;16.402;2022-11-20T11:32:50;5.30;99.90
13310;DHT22;6723;48.256;16.402;2022-11-20T11:35:26;5.20;99.90
13310;DHT22;6723;48.256;16.402;2022-11-20T11:38:02;5.20;99.90
13310;DHT22;6723;48.256;16.402;2022-11-20T11:40:31;5.20;99.90
13310;DHT22;6723;48.256;16.402;2022-11-20T11:43:01;5.00;99.90
13310;DHT22;6723;48.256;16.402;2022-11-20T11:45:28;4.80;99.90
13310;DHT22;6723;48.256;16.402;2022-11-20T11:47:57;5.10;99.90
13310;DHT22;6723;48.256;16.402;2022-11-20T11:50:26;5.20;99.90
13310;DHT22;6723;48.256;16.402;2022-11-20T12:01:27;6.00;99.90
13310;DHT22;6723;48.256;16.402;2022-11-20T12:04:05;7.20;99.90
13310;DHT22;6723;48.256;16.402;2022-11-20T12:06:38;8.30;99.90
13310;DHT22;6723;48.256;16.402;2022-11-20T12:09:08;9.50;99.90
13310;DHT22;6723;48.256;16.402;2022-11-20T12:11:37;10.60;99.90
13310;DHT22;6723;48.256;16.402;2022-11-20T12:17:25;11.70;95.90
13310;DHT22;6723;48.256;16.402;2022-11-20T12:19:51;12.50;94.90
13310;DHT22;6723;48.256;16.402;2022-11-20T12:28:19;12.00;93.50
13310;DHT22;6723;48.256;16.402;2022-11-20T12:31:26;11.50;93.00
13310;DHT22;6723;48.256;16.402;2022-11-20T12:37:04;12.10;92.30
13310;DHT22;6723;48.256;16.402;2022-11-20T12:39:42;12.00;93.00
13310;DHT22;6723;48.256;16.402;2022-11-20T12:45:12;12.30;92.80
13310;DHT22;6723;48.256;16.402;2022-11-20T13:01:07;10.00;98.60
13310;DHT22;6723;48.256;16.402;2022-11-20T13:03:58;10.20;98.40
13310;DHT22;6723;48.256;16.402;2022-11-20T13:06:27;10.20;98.30
13310;DHT22;6723;48.256;16.402;2022-11-20T13:09:12;9.50;99.80
13310;DHT22;6723;48.256;16.402;2022-11-20T13:12:07;8.70;99.90
13310;DHT22;6723;48.256;16.402;2022-11-20T13:17:43;8.50;99.90
13310;DHT22;6723;48.256;16.402;2022-11-20T13:20:16;8.50;99.90
13310;DHT22;6723;48.256;16.402;2022-11-20T13:22:47;8.60;99.90
13310;DHT22;6723;48.256;16.402;2022-11-20T13:27:48;8.20;99.90
13310;DHT22;6723;48.256;16.402;2022-11-20T13:30:18;8.10;99.90
13310;DHT22;6723;48.256;16.402;2022-11-20T13:33:20;7.90;99.90
13310;DHT22;6723;48.256;16.402;2022-11-20T13:36:02;7.70;99.90
13310;DHT22;6723;48.256;16.402;2022-11-20T13:38:42;7.60;99.90
13310;DHT22;6723;48.256;16.402;2022-11-20T13:41:09;7.60;99.90
13310;DHT22;6723;48.256;16.402;2022-11-20T13:47:29;7.50;99.90
13310;DHT22;6723;48.256;16.402;2022-11-20T13:49:58;7.50;99.90
13310;DHT22;6723;48.256;16.402;2022-11-20T14:00:27;6.90;99.90
13310;DHT22;6723;48.256;16.402;2022-11-20T14:03:25;6.90;99.90
13310;DHT22;6723;48.256;16.402;2022-11-20T14:06:02;6.90;99.90
13310;DHT22;6723;48.256;16.402;2022-11-20T14:08:52;6.90;99.90
13310;DHT22;6723;48.256;16.402;2022-11-20T14:11:29;6.80;99.90
13310;DHT22;6723;48.256;16.402;2022-11-20T14:14:14;6.80;99.90
13310;DHT22;6723;48.256;16.402;2022-11-20T14:16:41;6.80;99.90
13310;DHT22;6723;48.256;16.402;2022-11-20T14:19:35;6.80;99.90
13310;DHT22;6723;48.256;16.402;2022-11-20T14:22:29;6.50;99.90
13310;DHT22;6723;48.256;16.402;2022-11-20T14:27:53;6.30;99.90
13310;DHT22;6723;48.256;16.402;2022-11-20T14:30:26;6.30;99.90
13310;DHT22;6723;48.256;16.402;2022-11-20T14:33:00;6.50;99.90
13310;DHT22;6723;48.256;16.402;2022-11-20T14:35:28;6.50;99.90
13310;DHT22;6723;48.256;16.402;2022-11-20T14:37:56;6.50;99.90
13310;DHT22;6723;48.256;16.402;2022-11-20T14:40:33;6.60;99.90
13310;DHT22;6723;48.256;16.402;2022-11-20T14:43:23;6.60;99.90
13310;DHT22;6723;48.256;16.402;2022-11-20T14:46:05;6.30;99.90
13310;DHT22;6723;48.256;16.402;2022-11-20T14:51:10;6.40;99.90
13310;DHT22;6723;48.256;16.402;2022-11-20T14:53:36;6.40;99.90
13310;DHT22;6723;48.256;16.402;2022-11-20T14:56:02;6.30;99.90
13310;DHT22;6723;48.256;16.402;2022-11-20T14:58:31;6.30;99.90
13310;DHT22;6723;48.256;16.402;2022-11-20T15:01:06;6.20;99.90
13310;DHT22;6723;48.256;16.402;2022-11-20T15:03:40;6.10;99.90
13310;DHT22;6723;48.256;16.402;2022-11-20T15:06:10;6.00;99.90
13310;DHT22;6723;48.256;16.402;2022-11-20T15:08:36;5.90;99.90
13310;DHT22;6723;48.256;16.402;2022-11-20T15:11:02;5.80;99.90
13310;DHT22;6723;48.256;16.402;2022-11-20T15:13:34;5.60;99.90
13310;DHT22;6723;48.256;16.402;2022-11-20T15:16:02;5.60;99.90
13310;DHT22;6723;48.256;16.402;2022-11-20T15:18:36;5.50;99.90
13310;DHT22;6723;48.256;16.402;2022-11-20T15:21:06;5.40;99.90
13310;DHT22;6723;48.256;16.402;2022-11-20T15:23:35;5.30;99.90
13310;DHT22;6723;48.256;16.402;2022-11-20T15:26:01;5.20;99.90
13310;DHT22;6723;48.256;16.402;2022-11-20T15:28:35;5.20;99.90
13310;DHT22;6723;48.256;16.402;2022-11-20T15:31:03;5.10;99.90
13310;DHT22;6723;48.256;16.402;2022-11-20T15:33:30;5.00;99.90
13310;DHT22;6723;48.256;16.402;2022-11-20T15:35:56;5.00;99.90
13310;DHT22;6723;48.256;16.402;2022-11-20T15:38:22;5.00;99.90
13310;DHT22;6723;48.256;16.402;2022-11-20T15:40:48;4.90;99.90
13310;DHT22;6723;48.256;16.402;2022-11-20T15:43:14;4.80;99.90
13310;DHT22;6723;48.256;16.402;2022-11-20T15:45:43;4.80;99.90
13310;DHT22;6723;48.256;16.402;2022-11-20T15:48:40;4.80;99.90
13310;DHT22;6723;48.256;16.402;2022-11-20T15:53:39;4.80;99.90
13310;DHT22;6723;48.256;16.402;2022-11-20T15:56:05;4.80;99.90
13310;DHT22;6723;48.256;16.402;2022-11-20T15:58:31;4.70;99.90
13310;DHT22;6723;48.256;16.402;2022-11-20T16:00:57;4.70;99.90
13310;DHT22;6723;48.256;16.402;2022-11-20T16:03:31;4.60;99.90
13310;DHT22;6723;48.256;16.402;2022-11-20T16:05:57;4.60;99.90
13310;DHT22;6723;48.256;16.402;2022-11-20T16:08:22;4.50;99.90
13310;DHT22;6723;48.256;16.402;2022-11-20T16:10:48;4.40;99.90
13310;DHT22;6723;48.256;16.402;2022-11-20T16:13:18;4.30;99.90
13310;DHT22;6723;48.256;16.402;2022-11-20T16:16:08;4.20;99.90
13310;DHT22;6723;48.256;16.402;2022-11-20T16:18:37;4.20;99.90
13310;DHT22;6723;48.256;16.402;2022-11-20T16:21:03;4.20;99.90
13310;DHT22;6723;48.256;16.402;2022-11-20T16:23:29;4.10;99.90
13310;DHT22;6723;48.256;16.402;2022-11-20T16:25:57;4.10;99.90
13310;DHT22;6723;48.256;16.402;2022-11-20T16:28:22;4.10;99.90
13310;DHT22;6723;48.256;16.402;2022-11-20T16:30:48;4.20;99.90
13310;DHT22;6723;48.256;16.402;2022-11-20T16:33:16;4.30;99.90
13310;DHT22;6723;48.256;16.402;2022-11-20T16:35:42;4.30;99.90
13310;DHT22;6723;48.256;16.402;2022-11-20T16:38:08;4.30;99.90
13310;DHT22;6723;48.256;16.402;2022-11-20T16:40:34;4.30;99.90
13310;DHT22;6723;48.256;16.402;2022-11-20T16:43:11;4.20;99.90
13310;DHT22;6723;48.256;16.402;2022-11-20T16:45:43;4.20;99.90
13310;DHT22;6723;48.256;16.402;2022-11-20T16:48:13;4.40;99.90
13310;DHT22;6723;48.256;16.402;2022-11-20T16:50:51;4.40;99.90
13310;DHT22;6723;48.256;16.402;2022-11-20T16:53:18;4.40;99.90
13310;DHT22;6723;48.256;16.402;2022-11-20T16:55:44;4.50;99.90
13310;DHT22;6723;48.256;16.402;2022-11-20T16:58:10;4.50;99.90
13310;DHT22;6723;48.256;16.402;2022-11-20T17:00:40;4.60;99.90
13310;DHT22;6723;48.256;16.402;2022-11-20T17:03:06;4.60;99.90
13310;DHT22;6723;48.256;16.402;2022-11-20T17:05:32;4.50;99.90
13310;DHT22;6723;48.256;16.402;2022-11-20T17:07:59;4.50;99.90
13310;DHT22;6723;48.256;16.402;2022-11-20T17:10:25;4.40;99.90
13310;DHT22;6723;48.256;16.402;2022-11-20T17:12:51;4.40;99.90
13310;DHT22;6723;48.256;16.402;2022-11-20T17:15:17;4.40;99.90
13310;DHT22;6723;48.256;16.402;2022-11-20T17:17:42;4.20;99.90
13310;DHT22;6723;48.256;16.402;2022-11-20T17:20:09;4.20;99.90
13310;DHT22;6723;48.256;16.402;2022-11-20T17:22:35;4.10;99.90
13310;DHT22;6723;48.256;16.402;2022-11-20T17:25:01;4.10;99.90
13310;DHT22;6723;48.256;16.402;2022-11-20T17:27:27;4.00;99.90
13310;DHT22;6723;48.256;16.402;2022-11-20T17:29:52;4.00;99.90
13310;DHT22;6723;48.256;16.402;2022-11-20T17:32:19;4.00;99.90
13310;DHT22;6723;48.256;16.402;2022-11-20T17:34:45;4.10;99.90